createdAt,value
2017-11-19T00:01:07.087Z,15.03
2017-11-19T00:03:35.940Z,13.83
2017-11-19T00:06:04.834Z,20.93
2017-11-19T00:08:33.683Z,13.57
2017-11-19T00:11:02.595Z,15.43
2017-11-19T00:13:31.467Z,16.80
2017-11-19T00:16:00.355Z,14.50
2017-11-19T00:18:29.262Z,14.27
2017-11-19T00:20:58.107Z,17.13
2017-11-19T00:23:26.979Z,16.87
2017-11-19T00:25:55.834Z,15.57
2017-11-19T00:28:24.754Z,20.83
2017-11-19T00:30:53.649Z,17.73
2017-11-19T00:33:22.529Z,16.17
2017-11-19T00:35:51.392Z,17.97
2017-11-19T00:38:20.271Z,17.27
2017-11-19T00:40:49.195Z,21.13
2017-11-19T00:43:18.069Z,17.60
2017-11-19T00:45:46.946Z,24.43
2017-11-19T00:48:15.832Z,19.93
2017-11-19T00:50:44.696Z,23.27
2017-11-19T00:53:13.554Z,17.90
2017-11-19T00:55:42.575Z,25.13
2017-11-19T00:58:11.428Z,18.43
2017-11-19T01:00:40.311Z,26.37
2017-11-19T01:03:09.866Z,21.00
2017-11-19T01:05:38.771Z,25.43
2017-11-19T01:08:07.629Z,23.07
2017-11-19T01:10:37.391Z,29.70
2017-11-19T01:13:06.260Z,24.10
2017-11-19T01:15:35.119Z,21.77
2017-11-19T01:18:03.989Z,22.83
2017-11-19T01:20:33.032Z,25.20
2017-11-19T01:23:01.893Z,28.23
2017-11-19T01:25:30.753Z,23.80
2017-11-19T01:27:59.704Z,22.67
2017-11-19T01:30:28.645Z,23.00
2017-11-19T01:32:57.513Z,31.43
2017-11-19T01:35:26.383Z,24.67
2017-11-19T01:37:55.251Z,20.17
2017-11-19T01:40:24.111Z,24.80
2017-11-19T01:42:52.986Z,23.93
2017-11-19T01:45:21.873Z,23.03
2017-11-19T01:47:50.730Z,28.37
2017-11-19T01:50:19.639Z,30.50
2017-11-19T01:52:48.521Z,25.37
2017-11-19T01:55:17.380Z,24.20
2017-11-19T01:57:46.258Z,30.17
2017-11-19T02:00:15.153Z,30.70
2017-11-19T02:02:44.040Z,31.67
2017-11-19T02:05:12.919Z,30.33
2017-11-19T02:07:41.893Z,28.47
2017-11-19T02:10:10.758Z,34.13
2017-11-19T02:12:39.628Z,32.90
2017-11-19T02:15:08.555Z,27.77
2017-11-19T02:17:37.420Z,30.17
2017-11-19T02:20:06.440Z,30.87
2017-11-19T02:22:35.329Z,26.97
2017-11-19T02:25:04.279Z,29.77
2017-11-19T02:27:33.168Z,28.57
2017-11-19T02:30:02.049Z,29.80
2017-11-19T02:32:30.941Z,26.97
2017-11-19T02:34:59.798Z,32.17
2017-11-19T02:37:28.699Z,31.17
2017-11-19T02:39:57.579Z,32.70
2017-11-19T02:42:26.428Z,25.47
2017-11-19T02:44:55.317Z,35.20
2017-11-19T02:47:24.183Z,26.20
2017-11-19T02:49:53.111Z,30.87
2017-11-19T02:52:21.977Z,24.97
2017-11-19T02:54:50.828Z,27.77
2017-11-19T02:57:19.699Z,21.73
2017-11-19T02:59:48.579Z,23.70
2017-11-19T03:02:17.463Z,19.90
2017-11-19T03:04:46.326Z,21.00
2017-11-19T03:07:15.200Z,18.63
2017-11-19T03:09:44.058Z,27.17
2017-11-19T03:12:13.080Z,18.53
2017-11-19T03:14:42.035Z,17.53
2017-11-19T03:17:10.920Z,17.03
2017-11-19T03:19:39.795Z,17.63
2017-11-19T03:22:08.658Z,15.80
2017-11-19T03:24:37.554Z,17.93
2017-11-19T03:27:06.419Z,15.03
2017-11-19T03:29:35.263Z,15.60
2017-11-19T03:32:04.241Z,13.60
2017-11-19T03:34:33.140Z,12.43
2017-11-19T03:37:02.132Z,15.13
2017-11-19T03:39:30.984Z,10.23
2017-11-19T03:41:59.875Z,10.53
2017-11-19T03:44:28.731Z,11.23
2017-11-19T03:46:57.589Z,13.17
2017-11-19T03:49:26.471Z,10.70
2017-11-19T03:51:55.339Z,9.50
2017-11-19T03:54:24.211Z,9.13
2017-11-19T03:56:53.080Z,7.40
2017-11-19T03:59:22.009Z,6.20
2017-11-19T04:01:50.869Z,9.23
2017-11-19T04:04:19.773Z,15.57
2017-11-19T04:06:48.647Z,7.07
2017-11-19T04:09:17.499Z,5.63
2017-11-19T04:11:46.376Z,8.47
2017-11-19T04:14:15.287Z,5.17
2017-11-19T04:16:44.157Z,4.20
2017-11-19T04:19:13.009Z,3.90
2017-11-19T04:21:41.873Z,3.80
2017-11-19T04:24:10.726Z,5.10
2017-11-19T04:26:39.619Z,5.37
2017-11-19T04:29:08.476Z,2.90
2017-11-19T04:31:37.358Z,3.30
2017-11-19T04:34:06.212Z,3.40
2017-11-19T04:36:35.142Z,3.50
2017-11-19T04:39:04.032Z,4.77
2017-11-19T04:41:32.880Z,2.93
2017-11-19T04:44:01.778Z,6.17
2017-11-19T04:46:30.656Z,2.83
2017-11-19T04:48:59.585Z,4.77
2017-11-19T04:51:28.454Z,6.20
2017-11-19T04:53:57.300Z,4.13
2017-11-19T04:56:26.196Z,3.33
2017-11-19T04:58:55.047Z,3.80
2017-11-19T05:01:23.913Z,5.87
2017-11-19T05:03:52.808Z,3.53
2017-11-19T05:06:21.668Z,3.07
2017-11-19T05:08:50.709Z,3.40
2017-11-19T05:11:19.577Z,3.40
2017-11-19T05:13:48.441Z,3.17
2017-11-19T05:16:17.349Z,3.90
2017-11-19T05:18:46.216Z,4.97
2017-11-19T05:21:15.107Z,4.23
2017-11-19T05:23:43.968Z,3.20
2017-11-19T05:26:12.871Z,3.97
2017-11-19T05:28:41.737Z,3.03
2017-11-19T05:31:10.611Z,3.83
2017-11-19T05:33:39.481Z,3.23
2017-11-19T05:36:08.386Z,2.63
2017-11-19T05:38:37.246Z,2.50
2017-11-19T05:41:06.110Z,2.30
2017-11-19T05:43:34.999Z,3.90
2017-11-19T05:46:03.861Z,4.10
2017-11-19T05:48:32.748Z,2.60
2017-11-19T05:51:01.598Z,3.40
2017-11-19T05:53:30.535Z,2.80
2017-11-19T05:55:59.402Z,3.03
2017-11-19T05:58:28.267Z,2.63
2017-11-19T06:00:57.176Z,2.83
2017-11-19T06:03:26.036Z,2.93
2017-11-19T06:05:54.903Z,3.27
2017-11-19T06:08:23.771Z,2.50
2017-11-19T06:10:52.624Z,3.43
2017-11-19T06:13:21.496Z,2.50
2017-11-19T06:15:50.371Z,3.20
2017-11-19T06:18:19.415Z,2.83
2017-11-19T06:20:48.295Z,4.50
2017-11-19T06:23:17.182Z,5.00
2017-11-19T06:25:46.168Z,2.93
2017-11-19T06:28:15.043Z,3.60
2017-11-19T06:30:43.935Z,2.93
2017-11-19T06:33:12.980Z,3.03
2017-11-19T06:35:41.849Z,2.40
2017-11-19T06:38:10.744Z,2.43
2017-11-19T06:40:39.620Z,2.37
2017-11-19T06:43:08.493Z,2.17
2017-11-19T06:45:37.343Z,2.40
2017-11-19T06:48:06.212Z,2.40
2017-11-19T06:50:35.080Z,1.90
2017-11-19T06:53:03.953Z,4.03
2017-11-19T06:55:32.810Z,2.77
2017-11-19T06:58:01.704Z,2.20
2017-11-19T07:00:30.574Z,2.60
2017-11-19T07:02:59.427Z,2.43
2017-11-19T07:05:28.303Z,2.30
2017-11-19T07:07:57.173Z,2.13
2017-11-19T07:10:26.022Z,2.33
2017-11-19T07:12:54.895Z,1.87
2017-11-19T07:15:23.750Z,2.80
2017-11-19T07:17:52.612Z,2.50
2017-11-19T07:20:21.456Z,2.27
2017-11-19T07:22:50.336Z,1.87
2017-11-19T07:25:19.215Z,2.40
2017-11-19T07:27:48.081Z,2.10
2017-11-19T07:30:16.928Z,2.40
2017-11-19T07:32:45.828Z,2.53
2017-11-19T07:35:14.697Z,3.07
2017-11-19T07:37:43.591Z,1.70
2017-11-19T07:40:12.462Z,1.40
2017-11-19T07:42:41.330Z,2.10
2017-11-19T07:45:10.215Z,1.77
2017-11-19T07:47:39.056Z,2.40
2017-11-19T07:50:07.923Z,1.70
2017-11-19T07:52:36.784Z,1.60
2017-11-19T07:55:05.657Z,1.57
2017-11-19T07:57:34.540Z,1.43
2017-11-19T08:00:03.404Z,1.70
2017-11-19T08:02:32.280Z,1.80
2017-11-19T08:05:01.135Z,1.60
2017-11-19T08:07:30.068Z,1.60
2017-11-19T08:09:58.955Z,1.73
2017-11-19T08:12:27.824Z,2.17
2017-11-19T08:14:56.674Z,1.47
2017-11-19T08:17:25.585Z,1.80
2017-11-19T08:19:54.449Z,1.80
2017-11-19T08:22:23.330Z,1.77
2017-11-19T08:24:52.225Z,1.90
2017-11-19T08:27:21.080Z,1.97
2017-11-19T08:29:49.971Z,1.80
2017-11-19T08:32:18.808Z,4.40
2017-11-19T08:34:47.687Z,1.90
2017-11-19T08:37:16.544Z,3.10
2017-11-19T08:39:45.497Z,3.27
2017-11-19T08:42:14.349Z,5.87
2017-11-19T08:44:43.213Z,2.30
2017-11-19T08:47:12.095Z,3.00
2017-11-19T08:49:40.990Z,3.30
2017-11-19T08:52:09.839Z,2.80
2017-11-19T08:54:38.696Z,2.53
2017-11-19T08:57:07.552Z,4.00
2017-11-19T08:59:36.441Z,3.63
2017-11-19T09:02:05.307Z,6.07
2017-11-19T09:04:34.171Z,9.00
2017-11-19T09:07:03.077Z,5.63
2017-11-19T09:09:31.952Z,5.70
2017-11-19T09:12:00.799Z,4.77
2017-11-19T09:14:29.664Z,4.30
2017-11-19T09:16:58.520Z,9.30
2017-11-19T09:19:27.403Z,7.70
2017-11-19T09:21:56.289Z,4.17
2017-11-19T09:24:25.156Z,4.33
2017-11-19T09:26:54.047Z,3.70
2017-11-19T09:29:22.920Z,4.00
2017-11-19T09:31:51.770Z,5.30
2017-11-19T09:34:20.660Z,3.60
2017-11-19T09:36:49.505Z,4.83
2017-11-19T09:39:18.360Z,4.80
2017-11-19T09:41:47.239Z,5.30
2017-11-19T09:44:16.115Z,3.40
2017-11-19T09:46:45.009Z,3.40
2017-11-19T09:49:13.875Z,6.00
2017-11-19T09:51:42.735Z,4.37
2017-11-19T09:54:11.634Z,4.70
2017-11-19T09:56:40.492Z,5.97
2017-11-19T09:59:09.351Z,3.50
2017-11-19T10:01:38.257Z,4.10
2017-11-19T10:04:07.153Z,5.27
2017-11-19T10:06:36.111Z,11.13
2017-11-19T10:09:05.028Z,8.13
2017-11-19T10:11:33.883Z,6.47
2017-11-19T10:14:02.781Z,9.83
2017-11-19T10:16:31.656Z,4.27
2017-11-19T10:19:00.536Z,3.90
2017-11-19T10:21:29.436Z,5.93
2017-11-19T10:23:58.284Z,4.27
2017-11-19T10:26:27.143Z,4.03
2017-11-19T10:28:56.037Z,4.60
2017-11-19T10:31:24.900Z,6.47
2017-11-19T10:33:53.770Z,4.40
2017-11-19T10:36:22.619Z,5.43
2017-11-19T10:38:51.536Z,5.57
2017-11-19T10:41:20.435Z,5.83
2017-11-19T10:43:49.297Z,4.50
2017-11-19T10:46:18.213Z,3.53
2017-11-19T10:48:47.092Z,4.10
2017-11-19T10:51:15.968Z,3.67
2017-11-19T10:53:44.982Z,3.60
2017-11-19T10:56:13.869Z,2.50
2017-11-19T10:58:42.721Z,3.40
2017-11-19T11:01:11.595Z,5.13
2017-11-19T11:03:40.455Z,4.70
2017-11-19T11:06:09.326Z,6.80
2017-11-19T11:08:38.201Z,3.87
2017-11-19T11:11:07.100Z,3.60
2017-11-19T11:13:35.995Z,6.10
2017-11-19T11:16:04.866Z,4.90
2017-11-19T11:18:33.743Z,7.03
2017-11-19T11:21:02.608Z,2.70
2017-11-19T11:23:31.532Z,3.20
2017-11-19T11:26:00.446Z,5.13
2017-11-19T11:28:29.334Z,5.20
2017-11-19T11:30:58.179Z,3.40
2017-11-19T11:33:27.032Z,3.17
2017-11-19T11:35:56.028Z,3.00
2017-11-19T11:38:24.973Z,3.37
2017-11-19T11:40:53.853Z,7.53
2017-11-19T11:43:22.882Z,3.27
2017-11-19T11:45:51.829Z,7.43
2017-11-19T11:48:20.701Z,4.10
2017-11-19T11:50:49.610Z,2.60
2017-11-19T11:53:18.514Z,2.37
2017-11-19T11:55:47.407Z,3.80
2017-11-19T11:58:16.271Z,2.17
2017-11-19T12:00:45.153Z,2.37
2017-11-19T12:03:14.040Z,3.57
2017-11-19T12:05:42.915Z,2.20
2017-11-19T12:08:11.775Z,2.40
2017-11-19T12:10:41.454Z,2.20
2017-11-19T12:13:10.297Z,4.97
2017-11-19T12:15:39.178Z,2.13
2017-11-19T12:18:08.098Z,4.13
2017-11-19T12:20:36.968Z,4.17
2017-11-19T12:23:05.836Z,5.63
2017-11-19T12:25:34.709Z,6.80
2017-11-19T12:28:03.714Z,6.50
2017-11-19T12:30:32.744Z,5.87
2017-11-19T12:33:02.086Z,7.37
2017-11-19T12:35:31.030Z,11.87
2017-11-19T12:37:59.937Z,4.10
2017-11-19T12:40:28.805Z,3.03
2017-11-19T12:42:57.749Z,3.57
2017-11-19T12:45:26.600Z,5.67
2017-11-19T12:47:55.473Z,2.50
2017-11-19T12:50:24.320Z,4.40
2017-11-19T12:52:53.235Z,2.80
2017-11-19T12:55:22.175Z,3.10
2017-11-19T12:57:51.177Z,4.60
2017-11-19T13:00:20.063Z,4.77
2017-11-19T13:02:48.923Z,4.17
2017-11-19T13:05:17.801Z,4.00
2017-11-19T13:07:46.676Z,3.17
2017-11-19T13:10:15.537Z,4.00
2017-11-19T13:12:44.464Z,2.60
2017-11-19T13:15:13.358Z,2.60
2017-11-19T13:17:42.207Z,5.60
2017-11-19T13:20:11.103Z,4.53
2017-11-19T13:22:39.960Z,3.27
2017-11-19T13:25:08.833Z,3.50
2017-11-19T13:27:37.678Z,6.53
2017-11-19T13:30:06.550Z,5.93
2017-11-19T13:32:35.399Z,5.60
2017-11-19T13:35:04.283Z,6.03
2017-11-19T13:37:33.225Z,7.30
2017-11-19T13:40:02.179Z,22.93
2017-11-19T13:42:31.058Z,5.57
2017-11-19T13:45:00.589Z,5.23
2017-11-19T13:47:29.566Z,4.03
2017-11-19T13:49:59.339Z,4.00
2017-11-19T13:52:28.214Z,9.43
2017-11-19T13:54:57.263Z,3.43
2017-11-19T13:57:26.116Z,3.93
2017-11-19T13:59:55.001Z,6.13
2017-11-19T14:02:23.883Z,3.50
2017-11-19T14:04:52.765Z,4.70
2017-11-19T14:07:22.111Z,3.40
2017-11-19T14:09:50.968Z,6.50
2017-11-19T14:12:19.892Z,6.17
2017-11-19T14:14:48.740Z,7.70
2017-11-19T14:17:17.617Z,6.30
2017-11-19T14:19:46.491Z,5.90
2017-11-19T14:22:15.568Z,4.57
2017-11-19T14:24:45.176Z,6.10
2017-11-19T14:27:14.019Z,4.00
2017-11-19T14:29:42.946Z,5.80
2017-11-19T14:32:11.832Z,5.20
2017-11-19T14:34:40.739Z,8.33
2017-11-19T14:37:09.583Z,7.20
2017-11-19T14:39:39.195Z,6.10
2017-11-19T14:42:08.053Z,7.67
2017-11-19T14:44:36.920Z,10.53
2017-11-19T14:47:05.768Z,5.20
2017-11-19T14:49:34.692Z,8.33
2017-11-19T14:52:03.616Z,8.10
2017-11-19T14:54:32.491Z,3.67
2017-11-19T14:57:01.361Z,5.17
2017-11-19T14:59:30.206Z,5.80
2017-11-19T15:01:59.079Z,4.40
2017-11-19T15:04:27.941Z,7.37
2017-11-19T15:06:56.819Z,4.60
2017-11-19T15:09:25.711Z,5.40
2017-11-19T15:11:54.630Z,5.13
2017-11-19T15:14:24.159Z,7.53
2017-11-19T15:16:53.040Z,8.57
2017-11-19T15:19:21.920Z,4.90
2017-11-19T15:21:50.803Z,5.47
2017-11-19T15:24:19.750Z,13.00
2017-11-19T15:26:48.624Z,2.33
2017-11-19T15:29:17.511Z,4.10
2017-11-19T15:31:46.389Z,5.53
2017-11-19T15:34:15.254Z,3.80
2017-11-19T15:36:44.122Z,7.97
2017-11-19T15:39:13.063Z,5.67
2017-11-19T15:41:42.145Z,10.50
2017-11-19T15:44:10.992Z,7.43
2017-11-19T15:46:39.958Z,6.07
2017-11-19T15:49:08.895Z,12.63
2017-11-19T15:51:37.807Z,12.90
2017-11-19T15:54:06.669Z,5.37
2017-11-19T15:56:35.586Z,8.50
2017-11-19T15:59:04.613Z,6.87
2017-11-19T16:01:33.498Z,6.20
2017-11-19T16:04:02.384Z,8.90
2017-11-19T16:06:31.241Z,10.63
2017-11-19T16:09:00.174Z,6.37
2017-11-19T16:11:29.116Z,6.60
2017-11-19T16:13:58.005Z,7.90
2017-11-19T16:16:26.901Z,8.53
2017-11-19T16:18:55.766Z,5.50
2017-11-19T16:21:24.686Z,5.90
2017-11-19T16:23:53.835Z,7.03
2017-11-19T16:26:22.752Z,11.03
2017-11-19T16:28:51.679Z,7.50
2017-11-19T16:31:20.540Z,9.50
2017-11-19T16:33:49.412Z,10.40
2017-11-19T16:36:18.274Z,5.17
2017-11-19T16:38:47.135Z,5.93
2017-11-19T16:41:16.005Z,6.80
2017-11-19T16:43:44.901Z,5.17
2017-11-19T16:46:13.760Z,9.13
2017-11-19T16:48:42.664Z,5.63
2017-11-19T16:51:11.551Z,7.13
2017-11-19T16:53:40.416Z,14.37
2017-11-19T16:56:09.308Z,9.47
2017-11-19T16:58:38.159Z,5.63
2017-11-19T17:01:07.041Z,5.60
2017-11-19T17:03:35.892Z,7.97
2017-11-19T17:06:04.752Z,9.93
2017-11-19T17:08:33.650Z,6.33
2017-11-19T17:11:02.535Z,9.33
2017-11-19T17:13:31.402Z,9.00
2017-11-19T17:16:00.527Z,9.47
2017-11-19T17:18:29.608Z,10.00
2017-11-19T17:20:58.720Z,9.63
2017-11-19T17:23:27.636Z,7.97
2017-11-19T17:25:56.569Z,10.90
2017-11-19T17:28:25.467Z,10.43
2017-11-19T17:30:54.365Z,11.83
2017-11-19T17:33:23.443Z,19.67
2017-11-19T17:35:58.028Z,4.97
2017-11-19T17:38:26.929Z,13.93
2017-11-19T17:40:55.918Z,9.30
2017-11-19T17:43:24.922Z,5.83
2017-11-19T17:45:54.096Z,12.90
2017-11-19T17:48:23.016Z,6.07
2017-11-19T17:50:51.916Z,14.77
2017-11-19T17:53:20.775Z,5.50
2017-11-19T17:55:49.799Z,5.50
2017-11-19T17:58:18.699Z,11.67
2017-11-19T18:00:47.950Z,9.50
2017-11-19T18:03:16.952Z,7.90
2017-11-19T18:05:46.080Z,9.60
2017-11-19T18:08:15.020Z,5.43
2017-11-19T18:10:43.925Z,5.30
2017-11-19T18:13:13.577Z,9.13
2017-11-19T18:15:42.529Z,16.07
2017-11-19T18:18:11.501Z,4.33
2017-11-19T18:20:40.473Z,11.80
2017-11-19T18:23:09.353Z,5.80
2017-11-19T18:25:38.344Z,8.23
2017-11-19T18:28:07.187Z,13.97
2017-11-19T18:30:36.148Z,10.37
2017-11-19T18:33:05.126Z,14.77
2017-11-19T18:35:34.002Z,11.70
2017-11-19T18:38:02.876Z,7.60
2017-11-19T18:40:31.773Z,3.77
2017-11-19T18:43:00.637Z,10.27
2017-11-19T18:45:29.592Z,7.00
2017-11-19T18:48:01.021Z,10.27
2017-11-19T18:50:30.171Z,7.50
2017-11-19T18:52:59.355Z,3.13
2017-11-19T18:55:28.764Z,12.17
2017-11-19T18:57:57.661Z,9.57
2017-11-19T19:00:26.539Z,10.93
2017-11-19T19:02:55.920Z,8.03
2017-11-19T19:05:24.771Z,18.80
2017-11-19T19:07:53.635Z,4.83
2017-11-19T19:10:22.502Z,4.97
2017-11-19T19:12:51.390Z,8.82
2017-11-19T19:15:20.285Z,12.00
2017-11-19T19:17:49.142Z,4.30
2017-11-19T19:20:18.019Z,3.63
2017-11-19T19:22:46.891Z,7.07
2017-11-19T19:25:15.785Z,5.93
2017-11-19T19:27:44.630Z,5.37
2017-11-19T19:30:13.493Z,10.63
2017-11-19T19:32:42.351Z,7.70
2017-11-19T19:35:11.312Z,4.50
2017-11-19T19:37:40.260Z,6.17
2017-11-19T19:40:09.110Z,8.20
2017-11-19T19:42:37.988Z,10.80
2017-11-19T19:45:06.849Z,6.83
2017-11-19T19:47:35.719Z,7.60
2017-11-19T19:50:04.600Z,8.93
2017-11-19T19:52:33.469Z,6.70
2017-11-19T19:55:02.383Z,5.90
2017-11-19T19:57:31.265Z,13.17
2017-11-19T20:00:00.141Z,13.67
2017-11-19T20:02:29.044Z,7.00
2017-11-19T20:04:58.001Z,10.60
2017-11-19T20:07:27.008Z,5.43
2017-11-19T20:09:55.861Z,12.03
2017-11-19T20:12:24.702Z,6.10
2017-11-19T20:14:53.609Z,3.03
2017-11-19T20:17:22.469Z,8.83
2017-11-19T20:19:51.383Z,6.00
2017-11-19T20:22:20.276Z,11.00
2017-11-19T20:24:49.145Z,8.03
2017-11-19T20:27:18.006Z,4.60
2017-11-19T20:29:46.881Z,12.53
2017-11-19T20:32:15.769Z,7.53
2017-11-19T20:34:44.639Z,7.70
2017-11-19T20:37:13.507Z,4.53
2017-11-19T20:39:42.396Z,9.93
2017-11-19T20:42:11.280Z,12.20
2017-11-19T20:44:40.152Z,4.33
2017-11-19T20:47:09.043Z,12.50
2017-11-19T20:49:37.906Z,5.27
2017-11-19T20:52:06.829Z,3.50
2017-11-19T20:54:35.714Z,8.13
2017-11-19T20:57:04.614Z,19.20
2017-11-19T20:59:33.488Z,7.80
2017-11-19T21:02:02.388Z,4.07
2017-11-19T21:04:31.265Z,7.10
2017-11-19T21:07:00.111Z,4.97
2017-11-19T21:09:29.004Z,7.30
2017-11-19T21:11:57.876Z,10.03
2017-11-19T21:14:26.747Z,4.20
2017-11-19T21:16:55.615Z,4.87
2017-11-19T21:19:24.480Z,8.50
2017-11-19T21:21:53.327Z,6.83
2017-11-19T21:24:22.258Z,5.13
2017-11-19T21:26:51.182Z,3.30
2017-11-19T21:29:20.075Z,3.90
2017-11-19T21:31:48.934Z,4.90
2017-11-19T21:34:17.792Z,6.20
2017-11-19T21:36:46.656Z,5.87
2017-11-19T21:39:15.557Z,6.93
2017-11-19T21:41:44.453Z,7.90
2017-11-19T21:44:13.313Z,6.50
2017-11-19T21:46:42.225Z,12.13
2017-11-19T21:49:11.099Z,6.10
2017-11-19T21:51:40.005Z,3.33
2017-11-19T21:54:08.872Z,7.07
2017-11-19T21:56:37.742Z,6.33
2017-11-19T21:59:06.614Z,10.83
2017-11-19T22:01:35.490Z,4.70
2017-11-19T22:04:04.359Z,7.93
2017-11-19T22:06:33.204Z,6.83
2017-11-19T22:09:02.085Z,4.70
2017-11-19T22:11:30.952Z,6.63
2017-11-19T22:13:59.832Z,4.90
2017-11-19T22:16:28.707Z,7.40
2017-11-19T22:18:57.614Z,4.90
2017-11-19T22:21:26.461Z,3.60
2017-11-19T22:23:55.331Z,6.80
2017-11-19T22:26:24.215Z,4.73
2017-11-19T22:28:53.093Z,5.60
2017-11-19T22:31:21.970Z,7.40
2017-11-19T22:33:50.835Z,3.87
2017-11-19T22:36:19.722Z,9.60
2017-11-19T22:38:48.595Z,3.73
2017-11-19T22:41:17.452Z,5.13
2017-11-19T22:43:46.289Z,6.00
2017-11-19T22:46:15.147Z,5.33
2017-11-19T22:48:43.999Z,6.30
2017-11-19T22:51:12.876Z,5.37
2017-11-19T22:53:41.755Z,5.13
2017-11-19T22:56:10.652Z,12.03
2017-11-19T22:58:39.506Z,5.00
2017-11-19T23:01:08.387Z,14.43
2017-11-19T23:03:37.241Z,5.90
2017-11-19T23:06:06.155Z,11.90
2017-11-19T23:08:35.044Z,5.77
2017-11-19T23:11:03.895Z,6.17
2017-11-19T23:13:32.763Z,3.73
2017-11-19T23:16:01.618Z,9.77
2017-11-19T23:18:30.479Z,6.23
2017-11-19T23:20:59.363Z,6.63
2017-11-19T23:23:28.275Z,5.17
2017-11-19T23:25:57.161Z,5.07
2017-11-19T23:28:26.085Z,6.93
2017-11-19T23:30:54.969Z,6.27
2017-11-19T23:33:23.821Z,6.60
2017-11-19T23:35:52.706Z,5.93
2017-11-19T23:38:21.577Z,8.03
2017-11-19T23:40:50.453Z,8.20
2017-11-19T23:43:19.300Z,4.70
2017-11-19T23:45:48.181Z,6.97
2017-11-19T23:48:17.028Z,9.10
2017-11-19T23:50:45.900Z,9.50
2017-11-19T23:53:14.751Z,10.60
2017-11-19T23:55:43.650Z,12.93
2017-11-19T23:58:12.507Z,7.30
